sensor_id;sensor_type;location;lat;lon;timestamp;P1;durP1;ratioP1;P2;durP2;ratioP2
69529;SDS011;56727;47.188;8.840;2023-02-01T00:00:59;7.70;;;3.10;;
69529;SDS011;56727;47.188;8.840;2023-02-01T00:03:32;6.50;;;2.60;;
69529;SDS011;56727;47.188;8.840;2023-02-01T00:05:59;7.40;;;2.80;;
69529;SDS011;56727;47.188;8.840;2023-02-01T00:08:27;6.90;;;2.70;;
69529;SDS011;56727;47.188;8.840;2023-02-01T00:11:02;8.60;;;2.80;;
69529;SDS011;56727;47.188;8.840;2023-02-01T00:13:31;8.20;;;2.80;;
69529;SDS011;56727;47.188;8.840;2023-02-01T00:16:13;8.00;;;3.00;;
69529;SDS011;56727;47.188;8.840;2023-02-01T00:18:47;7.10;;;3.00;;
69529;SDS011;56727;47.188;8.840;2023-02-01T00:21:19;7.40;;;2.70;;
69529;SDS011;56727;47.188;8.840;2023-02-01T00:23:46;7.30;;;2.60;;
69529;SDS011;56727;47.188;8.840;2023-02-01T00:26:27;8.20;;;2.60;;
69529;SDS011;56727;47.188;8.840;2023-02-01T00:28:59;6.70;;;2.60;;
69529;SDS011;56727;47.188;8.840;2023-02-01T00:31:27;7.10;;;2.60;;
69529;SDS011;56727;47.188;8.840;2023-02-01T00:33:54;7.00;;;2.70;;
69529;SDS011;56727;47.188;8.840;2023-02-01T00:36:21;7.90;;;2.90;;
69529;SDS011;56727;47.188;8.840;2023-02-01T00:38:48;7.50;;;3.10;;
69529;SDS011;56727;47.188;8.840;2023-02-01T00:41:17;7.10;;;2.70;;
69529;SDS011;56727;47.188;8.840;2023-02-01T00:43:46;8.50;;;3.30;;
69529;SDS011;56727;47.188;8.840;2023-02-01T00:46:14;7.10;;;3.00;;
69529;SDS011;56727;47.188;8.840;2023-02-01T00:48:42;6.60;;;2.60;;
69529;SDS011;56727;47.188;8.840;2023-02-01T00:51:12;7.10;;;2.70;;
69529;SDS011;56727;47.188;8.840;2023-02-01T00:53:42;7.70;;;2.90;;
69529;SDS011;56727;47.188;8.840;2023-02-01T00:56:11;6.80;;;2.70;;
69529;SDS011;56727;47.188;8.840;2023-02-01T00:58:38;6.70;;;2.30;;
69529;SDS011;56727;47.188;8.840;2023-02-01T01:01:09;10.40;;;2.80;;
69529;SDS011;56727;47.188;8.840;2023-02-01T01:03:46;7.90;;;2.80;;
69529;SDS011;56727;47.188;8.840;2023-02-01T01:06:16;6.70;;;2.40;;
69529;SDS011;56727;47.188;8.840;2023-02-01T01:08:44;6.90;;;2.30;;
69529;SDS011;56727;47.188;8.840;2023-02-01T01:11:14;8.80;;;3.30;;
69529;SDS011;56727;47.188;8.840;2023-02-01T01:13:42;6.60;;;2.60;;
69529;SDS011;56727;47.188;8.840;2023-02-01T01:16:10;7.00;;;2.60;;
69529;SDS011;56727;47.188;8.840;2023-02-01T01:18:37;9.40;;;2.80;;
69529;SDS011;56727;47.188;8.840;2023-02-01T01:21:07;7.60;;;2.70;;
69529;SDS011;56727;47.188;8.840;2023-02-01T01:23:35;7.20;;;2.90;;
69529;SDS011;56727;47.188;8.840;2023-02-01T01:26:10;6.50;;;2.50;;
69529;SDS011;56727;47.188;8.840;2023-02-01T01:28:39;7.00;;;2.80;;
69529;SDS011;56727;47.188;8.840;2023-02-01T01:34:05;7.00;;;2.80;;
69529;SDS011;56727;47.188;8.840;2023-02-01T01:36:32;6.50;;;2.70;;
69529;SDS011;56727;47.188;8.840;2023-02-01T01:38:59;9.20;;;2.80;;
69529;SDS011;56727;47.188;8.840;2023-02-01T01:41:30;8.20;;;3.00;;
69529;SDS011;56727;47.188;8.840;2023-02-01T01:44:03;7.10;;;2.30;;
69529;SDS011;56727;47.188;8.840;2023-02-01T01:46:34;8.50;;;2.60;;
69529;SDS011;56727;47.188;8.840;2023-02-01T01:49:20;7.40;;;2.90;;
69529;SDS011;56727;47.188;8.840;2023-02-01T01:52:01;5.40;;;2.20;;
69529;SDS011;56727;47.188;8.840;2023-02-01T01:54:34;6.30;;;2.50;;
69529;SDS011;56727;47.188;8.840;2023-02-01T01:57:17;6.90;;;2.40;;
69529;SDS011;56727;47.188;8.840;2023-02-01T01:59:50;8.30;;;2.20;;
69529;SDS011;56727;47.188;8.840;2023-02-01T02:02:22;10.20;;;2.50;;
69529;SDS011;56727;47.188;8.840;2023-02-01T02:04:49;6.80;;;2.30;;
69529;SDS011;56727;47.188;8.840;2023-02-01T02:07:19;5.90;;;2.10;;
69529;SDS011;56727;47.188;8.840;2023-02-01T02:09:49;5.70;;;2.00;;
69529;SDS011;56727;47.188;8.840;2023-02-01T02:12:16;7.40;;;2.50;;
69529;SDS011;56727;47.188;8.840;2023-02-01T02:14:43;5.50;;;1.80;;
69529;SDS011;56727;47.188;8.840;2023-02-01T02:17:55;7.30;;;2.50;;
69529;SDS011;56727;47.188;8.840;2023-02-01T02:21:10;6.70;;;2.40;;
69529;SDS011;56727;47.188;8.840;2023-02-01T02:24:31;6.40;;;2.20;;
69529;SDS011;56727;47.188;8.840;2023-02-01T02:27:28;7.10;;;2.80;;
69529;SDS011;56727;47.188;8.840;2023-02-01T02:37:29;5.80;;;2.00;;
69529;SDS011;56727;47.188;8.840;2023-02-01T02:40:29;6.00;;;2.20;;
69529;SDS011;56727;47.188;8.840;2023-02-01T02:43:22;6.40;;;2.00;;
69529;SDS011;56727;47.188;8.840;2023-02-01T02:46:22;6.10;;;2.40;;
69529;SDS011;56727;47.188;8.840;2023-02-01T02:49:14;8.10;;;2.50;;
69529;SDS011;56727;47.188;8.840;2023-02-01T02:52:02;7.30;;;2.60;;
69529;SDS011;56727;47.188;8.840;2023-02-01T02:54:54;6.00;;;2.00;;
69529;SDS011;56727;47.188;8.840;2023-02-01T02:57:28;9.20;;;2.90;;
69529;SDS011;56727;47.188;8.840;2023-02-01T03:00:24;6.00;;;2.10;;
69529;SDS011;56727;47.188;8.840;2023-02-01T03:03:14;8.10;;;2.30;;
69529;SDS011;56727;47.188;8.840;2023-02-01T03:05:59;6.50;;;2.30;;
69529;SDS011;56727;47.188;8.840;2023-02-01T03:08:30;6.00;;;2.10;;
69529;SDS011;56727;47.188;8.840;2023-02-01T03:11:15;6.00;;;2.10;;
69529;SDS011;56727;47.188;8.840;2023-02-01T03:13:52;6.00;;;1.90;;
69529;SDS011;56727;47.188;8.840;2023-02-01T03:16:26;5.30;;;1.70;;
69529;SDS011;56727;47.188;8.840;2023-02-01T03:19:03;6.20;;;1.80;;
69529;SDS011;56727;47.188;8.840;2023-02-01T03:21:54;4.70;;;1.50;;
69529;SDS011;56727;47.188;8.840;2023-02-01T03:24:30;5.60;;;1.70;;
69529;SDS011;56727;47.188;8.840;2023-02-01T03:27:52;5.00;;;1.40;;
69529;SDS011;56727;47.188;8.840;2023-02-01T03:30:18;5.10;;;1.20;;
69529;SDS011;56727;47.188;8.840;2023-02-01T03:32:50;5.30;;;1.00;;
69529;SDS011;56727;47.188;8.840;2023-02-01T03:36:35;5.20;;;1.50;;
69529;SDS011;56727;47.188;8.840;2023-02-01T03:39:12;5.80;;;1.40;;
69529;SDS011;56727;47.188;8.840;2023-02-01T03:42:06;4.30;;;1.20;;
69529;SDS011;56727;47.188;8.840;2023-02-01T03:45:00;5.10;;;1.50;;
69529;SDS011;56727;47.188;8.840;2023-02-01T03:47:36;6.10;;;1.60;;
69529;SDS011;56727;47.188;8.840;2023-02-01T03:50:17;4.60;;;1.40;;
69529;SDS011;56727;47.188;8.840;2023-02-01T03:52:52;5.20;;;1.20;;
69529;SDS011;56727;47.188;8.840;2023-02-01T03:55:22;4.50;;;1.20;;
69529;SDS011;56727;47.188;8.840;2023-02-01T03:58:09;5.10;;;1.40;;
69529;SDS011;56727;47.188;8.840;2023-02-01T04:00:51;6.40;;;1.40;;
69529;SDS011;56727;47.188;8.840;2023-02-01T04:03:21;6.50;;;1.70;;
69529;SDS011;56727;47.188;8.840;2023-02-01T04:05:49;8.10;;;2.10;;
69529;SDS011;56727;47.188;8.840;2023-02-01T04:08:17;8.30;;;2.80;;
69529;SDS011;56727;47.188;8.840;2023-02-01T04:10:45;7.60;;;2.70;;
69529;SDS011;56727;47.188;8.840;2023-02-01T04:13:12;6.90;;;2.20;;
69529;SDS011;56727;47.188;8.840;2023-02-01T04:15:39;8.00;;;2.80;;
69529;SDS011;56727;47.188;8.840;2023-02-01T04:18:06;6.40;;;2.30;;
69529;SDS011;56727;47.188;8.840;2023-02-01T04:20:32;6.70;;;2.20;;
69529;SDS011;56727;47.188;8.840;2023-02-01T04:22:59;6.40;;;2.30;;
69529;SDS011;56727;47.188;8.840;2023-02-01T04:25:29;7.50;;;2.60;;
69529;SDS011;56727;47.188;8.840;2023-02-01T04:27:56;6.40;;;2.30;;
69529;SDS011;56727;47.188;8.840;2023-02-01T04:30:22;7.20;;;2.40;;
69529;SDS011;56727;47.188;8.840;2023-02-01T04:32:50;6.90;;;2.20;;
69529;SDS011;56727;47.188;8.840;2023-02-01T04:35:16;7.60;;;2.80;;
69529;SDS011;56727;47.188;8.840;2023-02-01T04:37:44;7.20;;;2.10;;
69529;SDS011;56727;47.188;8.840;2023-02-01T04:40:11;7.00;;;2.50;;
69529;SDS011;56727;47.188;8.840;2023-02-01T04:42:38;6.60;;;2.70;;
69529;SDS011;56727;47.188;8.840;2023-02-01T04:45:05;7.80;;;2.40;;
69529;SDS011;56727;47.188;8.840;2023-02-01T04:47:32;6.00;;;2.40;;
69529;SDS011;56727;47.188;8.840;2023-02-01T04:49:59;6.30;;;1.90;;
69529;SDS011;56727;47.188;8.840;2023-02-01T04:52:26;6.20;;;2.30;;
69529;SDS011;56727;47.188;8.840;2023-02-01T04:54:53;5.70;;;1.80;;
69529;SDS011;56727;47.188;8.840;2023-02-01T04:57:23;7.50;;;2.50;;
69529;SDS011;56727;47.188;8.840;2023-02-01T04:59:50;6.60;;;2.40;;
69529;SDS011;56727;47.188;8.840;2023-02-01T05:02:17;7.10;;;2.30;;
69529;SDS011;56727;47.188;8.840;2023-02-01T05:04:44;7.50;;;2.30;;
69529;SDS011;56727;47.188;8.840;2023-02-01T05:07:10;6.30;;;2.20;;
69529;SDS011;56727;47.188;8.840;2023-02-01T05:09:38;7.00;;;2.70;;
69529;SDS011;56727;47.188;8.840;2023-02-01T05:12:05;7.10;;;2.60;;
69529;SDS011;56727;47.188;8.840;2023-02-01T05:14:50;6.70;;;2.50;;
69529;SDS011;56727;47.188;8.840;2023-02-01T05:33:05;7.90;;;2.90;;
69529;SDS011;56727;47.188;8.840;2023-02-01T05:35:32;6.80;;;2.50;;
69529;SDS011;56727;47.188;8.840;2023-02-01T05:37:58;7.50;;;2.70;;
69529;SDS011;56727;47.188;8.840;2023-02-01T05:40:25;8.60;;;2.60;;
69529;SDS011;56727;47.188;8.840;2023-02-01T05:42:51;7.60;;;3.00;;
69529;SDS011;56727;47.188;8.840;2023-02-01T05:45:18;7.10;;;2.80;;
69529;SDS011;56727;47.188;8.840;2023-02-01T05:47:45;7.40;;;2.90;;
69529;SDS011;56727;47.188;8.840;2023-02-01T05:50:11;8.00;;;2.90;;
69529;SDS011;56727;47.188;8.840;2023-02-01T05:52:38;9.20;;;3.40;;
69529;SDS011;56727;47.188;8.840;2023-02-01T05:55:04;8.30;;;3.00;;
69529;SDS011;56727;47.188;8.840;2023-02-01T05:57:31;8.00;;;3.00;;
69529;SDS011;56727;47.188;8.840;2023-02-01T05:59:58;6.60;;;2.60;;
69529;SDS011;56727;47.188;8.840;2023-02-01T06:02:25;10.70;;;3.60;;
69529;SDS011;56727;47.188;8.840;2023-02-01T06:04:51;8.30;;;3.20;;
69529;SDS011;56727;47.188;8.840;2023-02-01T06:07:18;7.40;;;2.70;;
69529;SDS011;56727;47.188;8.840;2023-02-01T06:09:44;8.40;;;2.90;;
69529;SDS011;56727;47.188;8.840;2023-02-01T06:12:11;9.10;;;2.40;;
69529;SDS011;56727;47.188;8.840;2023-02-01T06:14:38;9.20;;;2.80;;
69529;SDS011;56727;47.188;8.840;2023-02-01T06:17:04;7.50;;;2.90;;
69529;SDS011;56727;47.188;8.840;2023-02-01T06:19:32;8.80;;;3.00;;
69529;SDS011;56727;47.188;8.840;2023-02-01T06:21:59;7.00;;;2.20;;
69529;SDS011;56727;47.188;8.840;2023-02-01T06:24:25;7.50;;;2.60;;
69529;SDS011;56727;47.188;8.840;2023-02-01T06:26:52;9.30;;;3.30;;
69529;SDS011;56727;47.188;8.840;2023-02-01T06:29:18;9.00;;;3.50;;
69529;SDS011;56727;47.188;8.840;2023-02-01T06:31:45;8.30;;;3.10;;
69529;SDS011;56727;47.188;8.840;2023-02-01T06:34:11;8.00;;;2.40;;
69529;SDS011;56727;47.188;8.840;2023-02-01T06:36:38;7.00;;;2.10;;
69529;SDS011;56727;47.188;8.840;2023-02-01T06:39:04;9.40;;;2.80;;
69529;SDS011;56727;47.188;8.840;2023-02-01T06:41:31;8.40;;;3.00;;
69529;SDS011;56727;47.188;8.840;2023-02-01T06:44:01;9.10;;;2.80;;
69529;SDS011;56727;47.188;8.840;2023-02-01T06:46:27;9.60;;;2.80;;
69529;SDS011;56727;47.188;8.840;2023-02-01T06:48:55;8.50;;;2.90;;
69529;SDS011;56727;47.188;8.840;2023-02-01T06:51:24;8.60;;;2.90;;
69529;SDS011;56727;47.188;8.840;2023-02-01T06:53:54;8.60;;;3.00;;
69529;SDS011;56727;47.188;8.840;2023-02-01T06:56:22;11.50;;;3.50;;
69529;SDS011;56727;47.188;8.840;2023-02-01T06:58:51;8.40;;;3.90;;
69529;SDS011;56727;47.188;8.840;2023-02-01T07:01:19;7.90;;;2.90;;
69529;SDS011;56727;47.188;8.840;2023-02-01T07:03:48;10.60;;;3.20;;
69529;SDS011;56727;47.188;8.840;2023-02-01T07:06:18;9.20;;;4.00;;
69529;SDS011;56727;47.188;8.840;2023-02-01T07:08:47;9.60;;;4.10;;
69529;SDS011;56727;47.188;8.840;2023-02-01T07:11:18;8.20;;;3.30;;
69529;SDS011;56727;47.188;8.840;2023-02-01T07:13:46;9.90;;;3.20;;
69529;SDS011;56727;47.188;8.840;2023-02-01T07:16:15;8.90;;;3.40;;
69529;SDS011;56727;47.188;8.840;2023-02-01T07:18:44;10.40;;;4.40;;
69529;SDS011;56727;47.188;8.840;2023-02-01T07:21:11;9.60;;;3.90;;
69529;SDS011;56727;47.188;8.840;2023-02-01T07:23:38;9.00;;;3.80;;
69529;SDS011;56727;47.188;8.840;2023-02-01T07:26:07;9.70;;;3.40;;
69529;SDS011;56727;47.188;8.840;2023-02-01T07:28:36;9.50;;;4.10;;
69529;SDS011;56727;47.188;8.840;2023-02-01T07:31:16;9.10;;;3.90;;
69529;SDS011;56727;47.188;8.840;2023-02-01T07:33:49;10.10;;;3.70;;
69529;SDS011;56727;47.188;8.840;2023-02-01T07:36:19;9.60;;;3.60;;
69529;SDS011;56727;47.188;8.840;2023-02-01T07:38:46;17.30;;;3.60;;
69529;SDS011;56727;47.188;8.840;2023-02-01T07:41:13;10.30;;;3.60;;
69529;SDS011;56727;47.188;8.840;2023-02-01T07:43:40;10.90;;;4.00;;
69529;SDS011;56727;47.188;8.840;2023-02-01T07:46:07;9.10;;;3.30;;
69529;SDS011;56727;47.188;8.840;2023-02-01T07:48:36;12.00;;;3.40;;
69529;SDS011;56727;47.188;8.840;2023-02-01T07:51:09;8.80;;;3.40;;
69529;SDS011;56727;47.188;8.840;2023-02-01T07:53:38;9.70;;;3.80;;
69529;SDS011;56727;47.188;8.840;2023-02-01T07:56:12;11.70;;;3.90;;
69529;SDS011;56727;47.188;8.840;2023-02-01T07:58:40;11.40;;;3.00;;
69529;SDS011;56727;47.188;8.840;2023-02-01T08:01:17;11.20;;;3.70;;
69529;SDS011;56727;47.188;8.840;2023-02-01T08:03:56;9.60;;;3.20;;
69529;SDS011;56727;47.188;8.840;2023-02-01T08:06:29;10.40;;;3.50;;
69529;SDS011;56727;47.188;8.840;2023-02-01T08:08:58;9.30;;;3.00;;
69529;SDS011;56727;47.188;8.840;2023-02-01T08:11:25;9.60;;;3.10;;
69529;SDS011;56727;47.188;8.840;2023-02-01T08:13:53;10.20;;;3.40;;
69529;SDS011;56727;47.188;8.840;2023-02-01T08:16:21;10.30;;;3.00;;
69529;SDS011;56727;47.188;8.840;2023-02-01T08:18:48;12.60;;;3.50;;
69529;SDS011;56727;47.188;8.840;2023-02-01T08:21:18;10.30;;;3.80;;
69529;SDS011;56727;47.188;8.840;2023-02-01T08:23:48;10.00;;;3.30;;
69529;SDS011;56727;47.188;8.840;2023-02-01T08:26:25;11.60;;;3.30;;
69529;SDS011;56727;47.188;8.840;2023-02-01T08:28:58;8.80;;;3.10;;
69529;SDS011;56727;47.188;8.840;2023-02-01T08:31:28;8.90;;;2.80;;
69529;SDS011;56727;47.188;8.840;2023-02-01T08:33:59;9.60;;;3.40;;
69529;SDS011;56727;47.188;8.840;2023-02-01T08:36:29;10.40;;;3.20;;
69529;SDS011;56727;47.188;8.840;2023-02-01T08:38:57;13.80;;;3.90;;
69529;SDS011;56727;47.188;8.840;2023-02-01T08:41:27;12.50;;;4.30;;
69529;SDS011;56727;47.188;8.840;2023-02-01T08:43:57;12.60;;;3.50;;
69529;SDS011;56727;47.188;8.840;2023-02-01T08:46:24;11.10;;;3.30;;
69529;SDS011;56727;47.188;8.840;2023-02-01T08:48:50;8.00;;;3.20;;
69529;SDS011;56727;47.188;8.840;2023-02-01T08:51:19;11.20;;;4.00;;
69529;SDS011;56727;47.188;8.840;2023-02-01T08:53:48;9.20;;;3.10;;
69529;SDS011;56727;47.188;8.840;2023-02-01T08:56:19;7.40;;;2.70;;
69529;SDS011;56727;47.188;8.840;2023-02-01T08:58:48;8.10;;;3.00;;
69529;SDS011;56727;47.188;8.840;2023-02-01T09:01:17;8.10;;;2.90;;
69529;SDS011;56727;47.188;8.840;2023-02-01T09:03:45;8.10;;;2.80;;
69529;SDS011;56727;47.188;8.840;2023-02-01T09:06:14;11.70;;;3.90;;
69529;SDS011;56727;47.188;8.840;2023-02-01T09:08:56;9.50;;;3.60;;
69529;SDS011;56727;47.188;8.840;2023-02-01T09:11:25;8.90;;;4.00;;
69529;SDS011;56727;47.188;8.840;2023-02-01T09:13:55;7.60;;;3.20;;
69529;SDS011;56727;47.188;8.840;2023-02-01T09:16:23;9.10;;;3.70;;
69529;SDS011;56727;47.188;8.840;2023-02-01T09:18:50;9.20;;;3.50;;
69529;SDS011;56727;47.188;8.840;2023-02-01T09:21:25;9.00;;;3.90;;
69529;SDS011;56727;47.188;8.840;2023-02-01T09:24:18;11.80;;;4.20;;
69529;SDS011;56727;47.188;8.840;2023-02-01T09:26:46;9.80;;;3.80;;
69529;SDS011;56727;47.188;8.840;2023-02-01T09:29:15;13.20;;;4.90;;
69529;SDS011;56727;47.188;8.840;2023-02-01T09:31:45;11.80;;;4.80;;
69529;SDS011;56727;47.188;8.840;2023-02-01T09:34:20;11.10;;;4.60;;
69529;SDS011;56727;47.188;8.840;2023-02-01T09:36:53;11.90;;;4.40;;
69529;SDS011;56727;47.188;8.840;2023-02-01T09:39:25;10.20;;;4.20;;
69529;SDS011;56727;47.188;8.840;2023-02-01T09:45:51;12.70;;;4.20;;
69529;SDS011;56727;47.188;8.840;2023-02-01T09:49:00;7.70;;;2.70;;
69529;SDS011;56727;47.188;8.840;2023-02-01T09:51:36;7.70;;;3.40;;
69529;SDS011;56727;47.188;8.840;2023-02-01T09:54:14;10.00;;;3.70;;
69529;SDS011;56727;47.188;8.840;2023-02-01T09:56:49;10.60;;;3.40;;
69529;SDS011;56727;47.188;8.840;2023-02-01T09:59:46;10.00;;;3.20;;
69529;SDS011;56727;47.188;8.840;2023-02-01T10:02:23;8.40;;;2.80;;
69529;SDS011;56727;47.188;8.840;2023-02-01T10:04:55;10.20;;;3.50;;
69529;SDS011;56727;47.188;8.840;2023-02-01T10:10:47;7.90;;;2.50;;
69529;SDS011;56727;47.188;8.840;2023-02-01T10:16:42;8.90;;;2.80;;
69529;SDS011;56727;47.188;8.840;2023-02-01T10:22:44;9.70;;;3.70;;
69529;SDS011;56727;47.188;8.840;2023-02-01T10:25:18;10.90;;;3.10;;
69529;SDS011;56727;47.188;8.840;2023-02-01T10:27:59;8.80;;;3.20;;
69529;SDS011;56727;47.188;8.840;2023-02-01T10:30:31;11.90;;;3.60;;
69529;SDS011;56727;47.188;8.840;2023-02-01T10:33:23;8.00;;;2.90;;
69529;SDS011;56727;47.188;8.840;2023-02-01T10:36:08;7.20;;;2.70;;
69529;SDS011;56727;47.188;8.840;2023-02-01T10:38:41;9.10;;;2.70;;
69529;SDS011;56727;47.188;8.840;2023-02-01T10:41:14;8.60;;;2.90;;
69529;SDS011;56727;47.188;8.840;2023-02-01T10:43:44;9.60;;;3.50;;
69529;SDS011;56727;47.188;8.840;2023-02-01T10:46:14;12.50;;;3.80;;
69529;SDS011;56727;47.188;8.840;2023-02-01T10:48:41;11.50;;;3.60;;
69529;SDS011;56727;47.188;8.840;2023-02-01T10:51:14;7.90;;;2.90;;
69529;SDS011;56727;47.188;8.840;2023-02-01T10:53:53;9.00;;;3.10;;
69529;SDS011;56727;47.188;8.840;2023-02-01T10:56:25;7.90;;;3.00;;
69529;SDS011;56727;47.188;8.840;2023-02-01T10:59:05;12.40;;;3.60;;
69529;SDS011;56727;47.188;8.840;2023-02-01T11:01:41;8.90;;;2.80;;
69529;SDS011;56727;47.188;8.840;2023-02-01T11:04:19;12.30;;;3.20;;
69529;SDS011;56727;47.188;8.840;2023-02-01T11:06:51;8.50;;;2.90;;
69529;SDS011;56727;47.188;8.840;2023-02-01T11:09:22;11.90;;;2.80;;
69529;SDS011;56727;47.188;8.840;2023-02-01T11:11:55;11.70;;;3.20;;
69529;SDS011;56727;47.188;8.840;2023-02-01T11:14:37;8.80;;;2.70;;
69529;SDS011;56727;47.188;8.840;2023-02-01T11:17:24;8.60;;;2.70;;
69529;SDS011;56727;47.188;8.840;2023-02-01T11:20:16;9.00;;;2.50;;
69529;SDS011;56727;47.188;8.840;2023-02-01T11:22:55;7.70;;;2.40;;
69529;SDS011;56727;47.188;8.840;2023-02-01T11:25:24;7.40;;;2.60;;
69529;SDS011;56727;47.188;8.840;2023-02-01T11:28:00;9.20;;;2.70;;
69529;SDS011;56727;47.188;8.840;2023-02-01T11:33:47;7.90;;;3.00;;
69529;SDS011;56727;47.188;8.840;2023-02-01T11:36:31;8.20;;;3.50;;
69529;SDS011;56727;47.188;8.840;2023-02-01T11:39:26;8.10;;;3.10;;
69529;SDS011;56727;47.188;8.840;2023-02-01T11:42:13;8.70;;;3.50;;
69529;SDS011;56727;47.188;8.840;2023-02-01T11:45:15;9.20;;;3.10;;
69529;SDS011;56727;47.188;8.840;2023-02-01T11:48:09;8.90;;;3.70;;
69529;SDS011;56727;47.188;8.840;2023-02-01T11:50:50;10.30;;;3.10;;
69529;SDS011;56727;47.188;8.840;2023-02-01T11:54:08;9.00;;;3.80;;
69529;SDS011;56727;47.188;8.840;2023-02-01T11:57:10;9.80;;;3.70;;
69529;SDS011;56727;47.188;8.840;2023-02-01T12:00:20;10.70;;;3.30;;
69529;SDS011;56727;47.188;8.840;2023-02-01T12:07:05;14.50;;;3.60;;
69529;SDS011;56727;47.188;8.840;2023-02-01T12:10:09;9.20;;;3.60;;
69529;SDS011;56727;47.188;8.840;2023-02-01T12:13:11;9.00;;;3.60;;
69529;SDS011;56727;47.188;8.840;2023-02-01T12:16:28;9.90;;;3.20;;
69529;SDS011;56727;47.188;8.840;2023-02-01T12:19:36;8.40;;;3.40;;
69529;SDS011;56727;47.188;8.840;2023-02-01T12:23:06;9.00;;;3.10;;
69529;SDS011;56727;47.188;8.840;2023-02-01T12:29:23;6.90;;;2.30;;
69529;SDS011;56727;47.188;8.840;2023-02-01T12:32:29;8.30;;;2.40;;
69529;SDS011;56727;47.188;8.840;2023-02-01T12:35:44;9.40;;;2.00;;
69529;SDS011;56727;47.188;8.840;2023-02-01T12:39:15;6.50;;;2.20;;
69529;SDS011;56727;47.188;8.840;2023-02-01T12:41:49;7.50;;;1.40;;
69529;SDS011;56727;47.188;8.840;2023-02-01T12:44:56;8.70;;;1.70;;
69529;SDS011;56727;47.188;8.840;2023-02-01T12:47:49;14.10;;;2.00;;
69529;SDS011;56727;47.188;8.840;2023-02-01T12:50:25;5.30;;;1.60;;
69529;SDS011;56727;47.188;8.840;2023-02-01T12:53:09;5.40;;;1.80;;
69529;SDS011;56727;47.188;8.840;2023-02-01T12:55:53;5.00;;;1.30;;
69529;SDS011;56727;47.188;8.840;2023-02-01T12:58:40;5.20;;;1.30;;
69529;SDS011;56727;47.188;8.840;2023-02-01T13:01:25;4.00;;;1.10;;
69529;SDS011;56727;47.188;8.840;2023-02-01T13:04:12;8.10;;;1.50;;
69529;SDS011;56727;47.188;8.840;2023-02-01T13:06:49;7.10;;;1.70;;
69529;SDS011;56727;47.188;8.840;2023-02-01T13:09:39;6.00;;;1.40;;
69529;SDS011;56727;47.188;8.840;2023-02-01T13:12:33;4.60;;;1.00;;
69529;SDS011;56727;47.188;8.840;2023-02-01T13:15:13;4.20;;;0.80;;
69529;SDS011;56727;47.188;8.840;2023-02-01T13:17:46;7.30;;;1.00;;
69529;SDS011;56727;47.188;8.840;2023-02-01T13:20:29;4.20;;;0.70;;
69529;SDS011;56727;47.188;8.840;2023-02-01T13:23:05;4.00;;;0.70;;
69529;SDS011;56727;47.188;8.840;2023-02-01T13:25:43;6.20;;;1.00;;
69529;SDS011;56727;47.188;8.840;2023-02-01T13:35:15;6.00;;;0.80;;
69529;SDS011;56727;47.188;8.840;2023-02-01T13:38:33;3.00;;;0.50;;
69529;SDS011;56727;47.188;8.840;2023-02-01T13:41:49;5.20;;;0.60;;
69529;SDS011;56727;47.188;8.840;2023-02-01T13:44:40;3.90;;;0.60;;
69529;SDS011;56727;47.188;8.840;2023-02-01T13:47:26;4.20;;;0.60;;
69529;SDS011;56727;47.188;8.840;2023-02-01T13:50:02;5.50;;;0.90;;
69529;SDS011;56727;47.188;8.840;2023-02-01T13:52:57;4.20;;;0.70;;
69529;SDS011;56727;47.188;8.840;2023-02-01T13:55:29;5.80;;;1.00;;
69529;SDS011;56727;47.188;8.840;2023-02-01T13:58:02;7.20;;;1.00;;
69529;SDS011;56727;47.188;8.840;2023-02-01T14:00:39;4.70;;;0.80;;
69529;SDS011;56727;47.188;8.840;2023-02-01T14:03:42;4.30;;;0.90;;
69529;SDS011;56727;47.188;8.840;2023-02-01T14:06:45;3.90;;;0.70;;
69529;SDS011;56727;47.188;8.840;2023-02-01T14:09:34;5.10;;;0.90;;
69529;SDS011;56727;47.188;8.840;2023-02-01T14:15:47;7.90;;;1.10;;
69529;SDS011;56727;47.188;8.840;2023-02-01T14:18:54;2.80;;;0.60;;
69529;SDS011;56727;47.188;8.840;2023-02-01T14:21:33;4.30;;;0.60;;
69529;SDS011;56727;47.188;8.840;2023-02-01T14:24:33;4.50;;;0.60;;
69529;SDS011;56727;47.188;8.840;2023-02-01T14:27:14;4.40;;;0.80;;
69529;SDS011;56727;47.188;8.840;2023-02-01T14:29:51;3.10;;;0.70;;
69529;SDS011;56727;47.188;8.840;2023-02-01T14:32:30;4.70;;;0.70;;
69529;SDS011;56727;47.188;8.840;2023-02-01T14:35:01;5.90;;;0.80;;
69529;SDS011;56727;47.188;8.840;2023-02-01T14:37:35;5.80;;;0.90;;
69529;SDS011;56727;47.188;8.840;2023-02-01T14:40:17;4.60;;;0.70;;
69529;SDS011;56727;47.188;8.840;2023-02-01T14:42:51;5.60;;;0.80;;
69529;SDS011;56727;47.188;8.840;2023-02-01T14:45:46;3.20;;;0.60;;
69529;SDS011;56727;47.188;8.840;2023-02-01T14:51:11;6.50;;;0.70;;
69529;SDS011;56727;47.188;8.840;2023-02-01T14:53:41;5.20;;;0.90;;
69529;SDS011;56727;47.188;8.840;2023-02-01T14:56:16;7.10;;;1.20;;
69529;SDS011;56727;47.188;8.840;2023-02-01T14:59:00;4.20;;;1.00;;
69529;SDS011;56727;47.188;8.840;2023-02-01T15:01:34;7.10;;;0.90;;
69529;SDS011;56727;47.188;8.840;2023-02-01T15:04:16;2.90;;;0.60;;
69529;SDS011;56727;47.188;8.840;2023-02-01T15:07:04;2.90;;;0.60;;
69529;SDS011;56727;47.188;8.840;2023-02-01T15:09:38;3.30;;;0.70;;
69529;SDS011;56727;47.188;8.840;2023-02-01T15:12:17;4.10;;;0.80;;
69529;SDS011;56727;47.188;8.840;2023-02-01T15:15:21;4.30;;;1.00;;
69529;SDS011;56727;47.188;8.840;2023-02-01T15:17:52;3.90;;;0.70;;
69529;SDS011;56727;47.188;8.840;2023-02-01T15:20:24;4.60;;;1.10;;
69529;SDS011;56727;47.188;8.840;2023-02-01T15:22:58;4.60;;;0.90;;
69529;SDS011;56727;47.188;8.840;2023-02-01T15:25:38;4.60;;;1.00;;
69529;SDS011;56727;47.188;8.840;2023-02-01T15:28:14;5.90;;;0.70;;
69529;SDS011;56727;47.188;8.840;2023-02-01T15:31:04;6.20;;;0.80;;
69529;SDS011;56727;47.188;8.840;2023-02-01T15:33:32;5.20;;;0.90;;
69529;SDS011;56727;47.188;8.840;2023-02-01T15:36:16;3.70;;;0.70;;
69529;SDS011;56727;47.188;8.840;2023-02-01T15:38:45;3.00;;;0.70;;
69529;SDS011;56727;47.188;8.840;2023-02-01T15:41:14;4.50;;;0.90;;
69529;SDS011;56727;47.188;8.840;2023-02-01T15:46:49;6.10;;;0.70;;
69529;SDS011;56727;47.188;8.840;2023-02-01T15:49:37;5.10;;;0.70;;
69529;SDS011;56727;47.188;8.840;2023-02-01T15:52:19;2.80;;;0.60;;
69529;SDS011;56727;47.188;8.840;2023-02-01T15:54:53;4.10;;;0.70;;
69529;SDS011;56727;47.188;8.840;2023-02-01T15:57:33;4.80;;;0.80;;
69529;SDS011;56727;47.188;8.840;2023-02-01T16:02:57;4.80;;;0.70;;
69529;SDS011;56727;47.188;8.840;2023-02-01T16:05:56;3.60;;;0.80;;
69529;SDS011;56727;47.188;8.840;2023-02-01T16:08:27;3.30;;;0.60;;
69529;SDS011;56727;47.188;8.840;2023-02-01T16:11:25;4.30;;;0.80;;
69529;SDS011;56727;47.188;8.840;2023-02-01T16:14:00;4.80;;;0.80;;
69529;SDS011;56727;47.188;8.840;2023-02-01T16:16:28;5.30;;;1.00;;
69529;SDS011;56727;47.188;8.840;2023-02-01T16:18:55;4.20;;;0.60;;
69529;SDS011;56727;47.188;8.840;2023-02-01T16:21:22;4.70;;;0.60;;
69529;SDS011;56727;47.188;8.840;2023-02-01T16:23:52;4.70;;;0.60;;
69529;SDS011;56727;47.188;8.840;2023-02-01T16:26:20;6.00;;;0.70;;
69529;SDS011;56727;47.188;8.840;2023-02-01T16:28:47;4.90;;;1.20;;
69529;SDS011;56727;47.188;8.840;2023-02-01T16:31:16;3.30;;;0.60;;
69529;SDS011;56727;47.188;8.840;2023-02-01T16:33:50;4.10;;;0.80;;
69529;SDS011;56727;47.188;8.840;2023-02-01T16:36:18;8.60;;;1.00;;
69529;SDS011;56727;47.188;8.840;2023-02-01T16:38:46;10.80;;;0.70;;
69529;SDS011;56727;47.188;8.840;2023-02-01T16:41:15;5.80;;;0.90;;
69529;SDS011;56727;47.188;8.840;2023-02-01T16:43:44;6.60;;;0.80;;
69529;SDS011;56727;47.188;8.840;2023-02-01T16:46:16;3.80;;;0.60;;
69529;SDS011;56727;47.188;8.840;2023-02-01T16:48:54;6.90;;;0.80;;
69529;SDS011;56727;47.188;8.840;2023-02-01T16:51:24;6.60;;;0.70;;